Time;durP1;ratioP1;P1;durP2;ratioP2;P2;SDS_P1;SDS_P2;PMS_P1;PMS_P2;Temp;Humidity;BMP_temperature;BMP_pressure;BME280_temperature;BME280_humidity;BME280_pressure;Samples;Min_cycle;Max_cycle;Signal;HPM_P1;HPM_P2
2021/11/03 00:01:46;;;;;;;13.30;5.77;;;3.20;99.90;;;;;;5020534;28;20183;-66
2021/11/03 00:04:12;;;;;;;10.07;5.47;;;3.20;99.90;;;;;;5022151;28;20175;-65
2021/11/03 00:06:41;;;;;;;11.40;5.40;;;3.10;99.90;;;;;;5020718;28;20466;-65
2021/11/03 00:09:07;;;;;;;8.03;5.53;;;3.10;99.90;;;;;;5023489;28;20437;-66
2021/11/03 00:11:34;;;;;;;20.47;6.57;;;3.10;99.90;;;;;;5026458;28;20434;-65
2021/11/03 00:14:00;;;;;;;9.23;5.90;;;3.10;99.90;;;;;;5021821;28;20435;-65
2021/11/03 00:16:26;;;;;;;11.53;6.57;;;3.00;99.90;;;;;;5017380;28;20450;-65
2021/11/03 00:18:52;;;;;;;11.90;5.50;;;3.00;99.90;;;;;;5023324;28;20815;-65
2021/11/03 00:21:17;;;;;;;13.43;5.70;;;3.00;99.90;;;;;;5022597;28;20186;-66
2021/11/03 00:23:43;;;;;;;11.17;6.53;;;3.00;99.90;;;;;;5027536;28;20453;-66
2021/11/03 00:26:09;;;;;;;10.30;6.17;;;3.00;99.90;;;;;;5028291;28;20210;-65
2021/11/03 00:28:35;;;;;;;12.67;6.80;;;3.10;99.90;;;;;;5023732;28;20181;-65
2021/11/03 00:31:01;;;;;;;11.73;6.77;;;3.10;99.90;;;;;;5020172;28;20176;-66
2021/11/03 00:33:29;;;;;;;14.80;6.00;;;3.10;99.90;;;;;;5027575;28;20418;-66
2021/11/03 00:35:55;;;;;;;16.37;6.60;;;3.10;99.90;;;;;;5027408;28;20186;-67
2021/11/03 00:38:22;;;;;;;26.23;7.20;;;3.10;99.90;;;;;;5017933;28;20454;-65
2021/11/03 00:40:49;;;;;;;11.57;6.33;;;3.10;99.90;;;;;;5025467;28;20519;-65
2021/11/03 00:43:15;;;;;;;17.07;6.60;;;3.10;99.90;;;;;;5014643;28;20422;-64
2021/11/03 00:45:41;;;;;;;27.63;7.07;;;3.10;99.90;;;;;;5021997;28;20457;-66
2021/11/03 00:48:07;;;;;;;12.37;6.47;;;3.10;99.90;;;;;;5027444;28;20975;-66
2021/11/03 00:50:34;;;;;;;9.60;5.90;;;3.10;99.90;;;;;;5022571;28;20176;-65
2021/11/03 00:53:00;;;;;;;10.77;6.03;;;3.10;99.90;;;;;;5017857;28;20419;-65
2021/11/03 00:55:25;;;;;;;13.23;5.80;;;3.10;99.90;;;;;;5026755;28;20924;-65
2021/11/03 00:57:51;;;;;;;7.97;5.73;;;3.10;99.90;;;;;;5034280;28;20204;-66
2021/11/03 01:00:18;;;;;;;8.37;5.57;;;3.10;99.90;;;;;;5043642;28;20187;-67
2021/11/03 01:02:44;;;;;;;8.97;5.77;;;3.10;99.90;;;;;;5042057;28;20168;-66
2021/11/03 01:05:13;;;;;;;9.60;5.40;;;3.10;99.90;;;;;;5019014;28;20447;-66
2021/11/03 01:07:40;;;;;;;12.00;6.10;;;3.10;99.90;;;;;;5027577;28;20462;-66
2021/11/03 01:10:06;;;;;;;8.80;5.67;;;3.20;99.90;;;;;;5025922;28;20449;-65
2021/11/03 01:12:33;;;;;;;10.50;5.70;;;3.20;99.90;;;;;;5028366;28;20800;-66
2021/11/03 01:14:58;;;;;;;12.83;5.73;;;3.20;99.90;;;;;;5021413;28;20419;-66
2021/11/03 01:17:24;;;;;;;10.17;6.03;;;3.20;99.90;;;;;;5032251;28;20455;-65
2021/11/03 01:19:50;;;;;;;10.10;5.93;;;3.20;99.90;;;;;;5017183;28;20375;-66
2021/11/03 01:22:16;;;;;;;12.40;5.77;;;3.20;99.90;;;;;;5030624;28;20189;-65
2021/11/03 01:24:41;;;;;;;9.30;5.73;;;3.30;99.90;;;;;;5028468;28;20171;-66
2021/11/03 01:27:07;;;;;;;10.20;5.73;;;3.30;99.90;;;;;;5031710;28;20976;-64
2021/11/03 01:29:33;;;;;;;14.23;7.30;;;3.30;99.90;;;;;;5026852;28;20810;-65
2021/11/03 01:31:58;;;;;;;8.60;5.70;;;3.30;99.90;;;;;;5030376;28;20256;-66
2021/11/03 01:34:24;;;;;;;10.30;6.20;;;3.30;99.90;;;;;;5027227;28;20294;-66
2021/11/03 01:36:50;;;;;;;12.63;6.50;;;3.30;99.90;;;;;;5026211;28;20227;-65
2021/11/03 01:39:15;;;;;;;10.20;6.40;;;3.40;99.90;;;;;;5024685;28;20257;-66
2021/11/03 01:41:41;;;;;;;10.20;6.03;;;3.40;99.90;;;;;;5030002;28;20184;-65
2021/11/03 01:44:13;;;;;;;13.07;6.50;;;3.40;99.90;;;;;;5023528;28;20176;-65
2021/11/03 01:46:47;;;;;;;12.27;6.43;;;3.40;99.90;;;;;;5030701;28;20833;-65
2021/11/03 01:49:23;;;;;;;8.33;5.83;;;3.40;99.90;;;;;;5031528;28;20406;-66
2021/11/03 01:51:56;;;;;;;11.53;6.00;;;3.40;99.90;;;;;;5019470;28;20418;-66
2021/11/03 01:54:29;;;;;;;16.30;6.70;;;3.40;99.90;;;;;;5029844;28;21143;-65
2021/11/03 01:56:57;;;;;;;8.40;5.90;;;3.40;99.90;;;;;;5031962;28;20418;-65
2021/11/03 01:59:30;;;;;;;10.17;6.00;;;3.40;99.90;;;;;;5025611;28;20438;-65
2021/11/03 02:01:56;;;;;;;9.03;5.73;;;3.40;99.90;;;;;;5030008;28;21013;-65
2021/11/03 02:04:23;;;;;;;10.97;6.50;;;3.40;99.90;;;;;;5030042;28;20438;-66
2021/11/03 02:06:49;;;;;;;14.30;6.80;;;3.40;99.90;;;;;;5021327;28;20518;-65
2021/11/03 02:09:15;;;;;;;9.67;6.17;;;3.40;99.90;;;;;;5028176;28;20431;-66
2021/11/03 02:11:41;;;;;;;9.43;5.77;;;3.40;99.90;;;;;;5028971;28;20423;-65
2021/11/03 02:14:08;;;;;;;10.00;5.40;;;3.50;99.90;;;;;;5026152;28;20788;-66
2021/11/03 02:16:41;;;;;;;8.53;4.93;;;3.50;99.90;;;;;;5026816;28;20453;-65
2021/11/03 02:19:21;;;;;;;9.30;6.03;;;3.50;99.90;;;;;;5030308;28;20487;-65
2021/11/03 02:22:24;;;;;;;8.10;5.80;;;3.50;99.90;;;;;;5017516;28;20414;-65
2021/11/03 02:25:04;;;;;;;7.80;5.63;;;3.40;99.90;;;;;;5024982;28;20434;-65
2021/11/03 02:27:33;;;;;;;7.80;5.70;;;3.40;99.90;;;;;;5019779;28;20458;-66
2021/11/03 02:29:58;;;;;;;12.60;5.37;;;3.40;99.90;;;;;;5022740;28;20803;-66
2021/11/03 02:32:28;;;;;;;9.13;5.90;;;3.40;99.90;;;;;;5027502;28;20430;-66
2021/11/03 02:34:54;;;;;;;9.63;6.00;;;3.40;99.90;;;;;;5030358;28;20229;-65
2021/11/03 02:37:28;;;;;;;6.53;5.30;;;3.50;99.90;;;;;;5023585;28;20438;-65
2021/11/03 02:40:03;;;;;;;10.83;6.23;;;3.50;99.90;;;;;;5022577;28;20864;-65
2021/11/03 02:42:32;;;;;;;10.00;5.67;;;3.50;99.90;;;;;;5014731;28;20810;-66
2021/11/03 02:45:02;;;;;;;9.03;5.70;;;3.50;99.90;;;;;;5021973;28;21086;-66
2021/11/03 02:47:28;;;;;;;10.00;6.07;;;3.50;99.90;;;;;;5016020;28;21193;-65
2021/11/03 02:49:54;;;;;;;9.37;5.80;;;3.50;99.90;;;;;;5019764;28;20434;-65
2021/11/03 02:52:23;;;;;;;10.70;6.63;;;3.50;99.90;;;;;;5028233;28;20174;-66
2021/11/03 02:54:49;;;;;;;9.40;5.40;;;3.50;99.90;;;;;;5019533;28;20173;-66
2021/11/03 02:57:16;;;;;;;7.47;5.30;;;3.40;99.90;;;;;;5023595;28;20864;-65
2021/11/03 02:59:43;;;;;;;9.03;5.23;;;3.40;99.90;;;;;;5010085;28;20482;-66
2021/11/03 03:02:09;;;;;;;7.47;5.57;;;3.40;99.90;;;;;;5026132;28;20798;-65
2021/11/03 03:04:38;;;;;;;13.00;5.93;;;3.40;99.90;;;;;;5023650;28;20426;-65
2021/11/03 03:07:05;;;;;;;9.83;5.70;;;3.40;99.90;;;;;;5027314;28;20466;-66
2021/11/03 03:09:31;;;;;;;9.60;5.70;;;3.40;99.90;;;;;;5022681;28;20437;-65
2021/11/03 03:12:00;;;;;;;9.63;6.13;;;3.40;99.90;;;;;;5027720;28;20415;-66
2021/11/03 03:14:28;;;;;;;7.17;5.60;;;3.40;99.90;;;;;;5022521;28;20462;-65
2021/11/03 03:16:55;;;;;;;8.20;4.97;;;3.40;99.90;;;;;;5025604;28;21005;-66
2021/11/03 03:19:21;;;;;;;9.07;5.10;;;3.30;99.90;;;;;;5028218;28;20813;-65
2021/11/03 03:21:47;;;;;;;7.47;5.60;;;3.30;99.90;;;;;;5020062;28;20459;-66
2021/11/03 03:24:14;;;;;;;6.20;4.70;;;3.30;99.90;;;;;;5020663;28;20507;-65
2021/11/03 03:26:41;;;;;;;7.10;5.03;;;3.30;99.90;;;;;;5024099;28;20466;-65
2021/11/03 03:29:07;;;;;;;7.23;5.43;;;3.30;99.90;;;;;;5019406;28;20431;-65
2021/11/03 03:31:34;;;;;;;7.13;5.27;;;3.40;99.90;;;;;;5023257;28;20433;-65
2021/11/03 03:34:02;;;;;;;7.47;4.90;;;3.40;99.90;;;;;;5013718;28;20957;-66
2021/11/03 03:36:28;;;;;;;8.27;5.27;;;3.40;99.90;;;;;;5020575;28;20581;-65
2021/11/03 03:38:55;;;;;;;9.67;6.17;;;3.50;99.90;;;;;;5026745;28;20439;-66
2021/11/03 03:41:22;;;;;;;6.83;5.23;;;3.50;99.90;;;;;;5025947;28;20434;-65
2021/11/03 03:43:48;;;;;;;7.70;5.47;;;3.50;99.90;;;;;;5022911;28;20493;-65
2021/11/03 03:46:15;;;;;;;8.10;4.50;;;3.50;99.90;;;;;;5023415;28;20558;-65
2021/11/03 03:48:41;;;;;;;6.93;4.70;;;3.50;99.90;;;;;;5027585;28;20426;-65
2021/11/03 03:51:08;;;;;;;5.60;3.77;;;3.60;99.90;;;;;;5021189;28;20433;-65
2021/11/03 03:53:34;;;;;;;11.33;4.83;;;3.60;99.90;;;;;;5019486;28;20504;-65
2021/11/03 03:56:00;;;;;;;7.47;4.87;;;3.50;99.90;;;;;;5026702;28;21159;-65
2021/11/03 03:58:26;;;;;;;8.30;4.60;;;3.50;99.90;;;;;;5026948;28;20450;-65
2021/11/03 04:00:52;;;;;;;6.83;4.80;;;3.50;99.90;;;;;;5026125;28;20700;-65
2021/11/03 04:03:19;;;;;;;7.13;4.80;;;3.50;99.90;;;;;;5020730;28;20579;-66
2021/11/03 04:05:45;;;;;;;6.00;4.43;;;3.50;99.90;;;;;;5018664;28;20491;-65
2021/11/03 04:08:12;;;;;;;8.43;5.10;;;3.50;99.90;;;;;;5024081;28;20530;-65
2021/11/03 04:10:39;;;;;;;9.13;5.80;;;3.50;99.90;;;;;;5011802;28;20789;-66
2021/11/03 04:13:04;;;;;;;6.17;4.93;;;3.50;99.90;;;;;;5021042;28;20499;-65
2021/11/03 04:15:31;;;;;;;5.50;4.60;;;3.60;99.90;;;;;;5018505;28;20517;-66
2021/11/03 04:17:57;;;;;;;10.23;5.80;;;3.60;99.90;;;;;;5028718;28;20192;-65
2021/11/03 04:20:22;;;;;;;6.07;4.37;;;3.60;99.90;;;;;;5022235;28;21172;-65
2021/11/03 04:22:48;;;;;;;7.40;5.10;;;3.60;99.90;;;;;;5028184;28;20164;-66
2021/11/03 04:25:14;;;;;;;4.77;4.03;;;3.60;99.90;;;;;;5025295;28;20262;-65
2021/11/03 04:27:40;;;;;;;6.00;4.87;;;3.50;99.90;;;;;;5021973;28;20227;-66
2021/11/03 04:30:08;;;;;;;9.07;5.10;;;3.50;99.90;;;;;;5015146;28;20433;-65
2021/11/03 04:32:34;;;;;;;5.53;4.13;;;3.50;99.90;;;;;;5024248;28;20507;-65
2021/11/03 04:34:59;;;;;;;6.77;4.90;;;3.50;99.90;;;;;;5026173;28;20434;-65
2021/11/03 04:37:25;;;;;;;9.87;5.70;;;3.50;99.90;;;;;;5027305;28;20195;-65
2021/11/03 04:39:51;;;;;;;7.43;5.13;;;3.50;99.90;;;;;;5012122;28;20180;-65
2021/11/03 04:42:17;;;;;;;8.10;5.30;;;3.50;99.90;;;;;;5019207;28;20177;-66
2021/11/03 04:44:42;;;;;;;7.27;4.90;;;3.40;99.90;;;;;;5023117;28;20178;-66
2021/11/03 04:47:08;;;;;;;8.70;5.40;;;3.40;99.90;;;;;;5030890;28;20469;-65
2021/11/03 04:49:35;;;;;;;7.17;5.00;;;3.40;99.90;;;;;;5029773;28;20588;-65
2021/11/03 04:52:01;;;;;;;7.33;5.40;;;3.40;99.90;;;;;;5026085;28;20179;-66
2021/11/03 04:54:26;;;;;;;7.93;5.47;;;3.40;99.90;;;;;;5025869;28;20831;-66
2021/11/03 04:56:52;;;;;;;8.20;4.70;;;3.40;99.90;;;;;;5029865;28;20196;-66
2021/11/03 04:59:18;;;;;;;6.50;4.77;;;3.40;99.90;;;;;;5021526;28;20177;-66
2021/11/03 05:01:45;;;;;;;6.83;5.40;;;3.30;99.90;;;;;;5016732;28;20241;-65
2021/11/03 05:04:11;;;;;;;8.90;4.60;;;3.30;99.90;;;;;;5022475;28;20421;-65
2021/11/03 05:06:39;;;;;;;5.60;4.97;;;3.30;99.90;;;;;;5024060;28;20493;-65
2021/11/03 05:09:07;;;;;;;10.37;5.70;;;3.20;99.90;;;;;;5026753;28;20879;-65
2021/11/03 05:11:33;;;;;;;12.07;4.70;;;3.20;99.90;;;;;;5029084;28;20426;-65
2021/11/03 05:13:58;;;;;;;6.03;4.90;;;3.20;99.90;;;;;;5023957;28;20866;-65
2021/11/03 05:16:26;;;;;;;6.97;4.60;;;3.20;99.90;;;;;;5032423;28;20987;-65
2021/11/03 05:18:52;;;;;;;9.33;5.17;;;3.20;99.90;;;;;;5029875;28;20183;-66
2021/11/03 05:21:19;;;;;;;8.87;5.50;;;3.20;99.90;;;;;;5026526;28;20426;-66
2021/11/03 05:23:45;;;;;;;5.60;4.83;;;3.20;99.90;;;;;;5032766;28;20449;-65
2021/11/03 05:26:16;;;;;;;10.17;6.03;;;3.20;99.90;;;;;;5017011;28;20498;-65
2021/11/03 05:28:45;;;;;;;9.97;4.90;;;3.20;99.90;;;;;;5025076;28;20417;-64
2021/11/03 05:31:11;;;;;;;12.13;5.13;;;3.10;99.90;;;;;;5024091;28;21059;-65
2021/11/03 05:33:37;;;;;;;7.70;4.80;;;3.10;99.90;;;;;;5032717;28;20410;-66
2021/11/03 05:36:03;;;;;;;5.77;4.63;;;3.20;99.90;;;;;;5022785;28;21015;-66
2021/11/03 05:38:29;;;;;;;6.37;4.83;;;3.20;99.90;;;;;;5023525;28;20172;-66
2021/11/03 05:40:55;;;;;;;8.50;4.27;;;3.20;99.90;;;;;;5023373;28;20486;-66
2021/11/03 05:43:20;;;;;;;8.50;5.10;;;3.10;99.90;;;;;;5025795;28;20245;-65
2021/11/03 05:45:46;;;;;;;6.40;4.83;;;3.20;99.90;;;;;;5022832;28;20429;-66
2021/11/03 05:48:12;;;;;;;9.87;4.30;;;3.10;99.90;;;;;;5024526;28;20176;-65
2021/11/03 05:50:38;;;;;;;7.30;4.50;;;3.10;99.90;;;;;;5030114;28;20168;-65
2021/11/03 05:53:04;;;;;;;4.80;4.30;;;3.10;99.90;;;;;;5030476;28;20184;-65
2021/11/03 05:55:30;;;;;;;6.40;4.87;;;3.10;99.90;;;;;;5032191;28;20628;-66
2021/11/03 05:57:57;;;;;;;7.17;4.40;;;3.10;99.90;;;;;;5018714;28;20309;-66
2021/11/03 06:00:24;;;;;;;5.80;4.50;;;3.10;99.90;;;;;;5023656;28;20570;-65
2021/11/03 06:02:50;;;;;;;9.40;5.20;;;3.10;99.90;;;;;;5031332;28;20422;-66
2021/11/03 06:05:16;;;;;;;6.93;4.53;;;3.10;99.90;;;;;;5023590;28;21050;-66
2021/11/03 06:07:55;;;;;;;5.73;4.30;;;3.00;99.90;;;;;;5030714;28;20211;-65
2021/11/03 06:10:34;;;;;;;9.70;4.77;;;3.00;99.90;;;;;;5030864;28;20191;-65
2021/11/03 06:13:00;;;;;;;8.97;4.90;;;3.00;99.90;;;;;;5024082;28;20454;-65
2021/11/03 06:15:27;;;;;;;8.00;5.43;;;3.00;99.90;;;;;;5023883;28;20458;-66
2021/11/03 06:17:54;;;;;;;6.40;4.53;;;3.00;99.90;;;;;;5026529;28;20453;-65
2021/11/03 06:20:21;;;;;;;9.57;5.93;;;3.00;99.90;;;;;;5030671;28;20491;-66
2021/11/03 06:22:47;;;;;;;5.33;4.47;;;3.00;99.90;;;;;;5016103;28;20447;-65
2021/11/03 06:25:13;;;;;;;9.23;6.00;;;3.00;99.90;;;;;;5024010;28;20430;-66
2021/11/03 06:27:39;;;;;;;7.40;5.63;;;3.00;99.90;;;;;;5031953;28;20274;-65
2021/11/03 06:30:07;;;;;;;9.10;5.17;;;3.00;99.90;;;;;;5027415;28;20447;-66
2021/11/03 06:32:35;;;;;;;8.60;5.17;;;3.00;99.90;;;;;;5025588;28;20454;-64
2021/11/03 06:35:01;;;;;;;8.30;5.20;;;3.00;99.90;;;;;;5015895;28;20436;-65
2021/11/03 06:37:26;;;;;;;8.10;5.00;;;3.00;99.90;;;;;;5025645;28;20452;-66
2021/11/03 06:39:52;;;;;;;8.93;5.00;;;3.00;99.90;;;;;;5023567;28;20526;-66
2021/11/03 06:42:18;;;;;;;9.13;5.47;;;3.00;99.90;;;;;;5026931;28;20189;-65
2021/11/03 06:44:43;;;;;;;7.87;5.20;;;3.00;99.90;;;;;;5021792;28;20209;-65
2021/11/03 06:47:09;;;;;;;6.47;5.10;;;3.00;99.90;;;;;;5030459;28;20749;-66
2021/11/03 06:49:35;;;;;;;8.93;4.80;;;3.10;99.90;;;;;;5018130;28;21154;-65
2021/11/03 06:52:01;;;;;;;5.97;4.70;;;3.10;99.90;;;;;;5021628;28;20258;-65
2021/11/03 06:54:26;;;;;;;6.17;4.70;;;3.10;99.90;;;;;;5026863;28;20174;-65
2021/11/03 06:56:52;;;;;;;11.03;4.80;;;3.10;99.90;;;;;;5020600;28;20280;-62
2021/11/03 06:59:19;;;;;;;9.50;4.60;;;3.20;99.90;;;;;;5024699;28;20527;-59
2021/11/03 07:01:46;;;;;;;8.03;4.70;;;3.20;99.90;;;;;;5024515;28;20458;-59
2021/11/03 07:04:13;;;;;;;7.87;5.40;;;3.20;99.90;;;;;;5022139;28;20809;-59
2021/11/03 07:06:39;;;;;;;7.07;4.97;;;3.20;99.90;;;;;;5029697;28;20524;-59
2021/11/03 07:09:06;;;;;;;6.83;4.90;;;3.30;99.90;;;;;;5026290;28;20514;-61
2021/11/03 07:11:32;;;;;;;8.73;5.30;;;3.30;99.90;;;;;;5020231;28;20504;-62
2021/11/03 07:13:58;;;;;;;12.77;5.23;;;3.30;99.90;;;;;;5021654;28;20973;-62
2021/11/03 07:16:25;;;;;;;13.80;6.30;;;3.40;99.90;;;;;;5026647;28;20557;-62
2021/11/03 07:18:51;;;;;;;8.50;5.40;;;3.40;99.90;;;;;;5025433;28;20461;-62
2021/11/03 07:21:17;;;;;;;15.50;6.40;;;3.40;99.90;;;;;;5026381;28;20513;-62
2021/11/03 07:23:43;;;;;;;9.43;5.70;;;3.40;99.90;;;;;;5021982;28;20534;-62
2021/11/03 07:26:08;;;;;;;7.00;4.60;;;3.50;99.90;;;;;;5016630;28;20211;-63
2021/11/03 07:28:36;;;;;;;7.20;5.27;;;3.50;99.90;;;;;;5020825;28;20451;-62
2021/11/03 07:31:03;;;;;;;6.00;4.77;;;3.50;99.90;;;;;;5020261;28;20200;-62
2021/11/03 07:33:29;;;;;;;15.40;6.37;;;3.50;99.90;;;;;;5022454;28;20807;-63
2021/11/03 07:35:54;;;;;;;8.60;5.53;;;3.50;99.90;;;;;;5024773;28;20430;-62
2021/11/03 07:38:21;;;;;;;9.53;5.60;;;3.60;99.90;;;;;;5028968;28;20180;-62
2021/11/03 07:40:51;;;;;;;8.47;5.17;;;3.60;99.90;;;;;;5022768;28;20643;-62
2021/11/03 07:43:19;;;;;;;7.80;4.97;;;3.60;99.90;;;;;;5019937;28;20458;-63
2021/11/03 07:45:46;;;;;;;7.23;5.03;;;3.70;99.90;;;;;;5021912;28;20480;-62
2021/11/03 07:48:12;;;;;;;6.97;4.93;;;3.70;99.90;;;;;;5010020;28;21113;-62
2021/11/03 07:50:44;;;;;;;7.50;4.73;;;3.70;99.90;;;;;;5024874;28;20877;-63
2021/11/03 07:53:11;;;;;;;6.47;4.97;;;3.80;99.90;;;;;;5028289;28;20525;-63
2021/11/03 07:55:42;;;;;;;7.43;4.80;;;3.90;99.90;;;;;;5026901;28;20431;-63
2021/11/03 07:58:15;;;;;;;7.03;5.37;;;4.00;99.90;;;;;;5021658;28;21071;-62
2021/11/03 08:00:41;;;;;;;6.47;4.50;;;4.20;99.90;;;;;;5020087;28;20430;-62
2021/11/03 08:03:07;;;;;;;9.63;4.30;;;4.30;99.90;;;;;;5013623;28;20505;-66
2021/11/03 08:05:34;;;;;;;7.20;4.27;;;4.50;99.90;;;;;;5013143;28;20505;-66
2021/11/03 08:08:03;;;;;;;6.70;4.20;;;4.60;99.90;;;;;;5020628;28;20466;-66
2021/11/03 08:10:29;;;;;;;6.40;4.40;;;4.80;99.90;;;;;;5019320;28;20487;-66
2021/11/03 08:12:56;;;;;;;7.90;4.53;;;4.90;99.90;;;;;;5012207;28;20920;-65
2021/11/03 08:15:23;;;;;;;5.80;3.70;;;5.00;99.90;;;;;;5028685;28;20410;-65
2021/11/03 08:17:49;;;;;;;7.63;4.40;;;5.10;99.90;;;;;;5025981;28;20454;-66
2021/11/03 08:20:20;;;;;;;5.73;4.27;;;5.10;99.90;;;;;;5022956;28;20432;-66
2021/11/03 08:22:46;;;;;;;6.77;5.00;;;5.20;99.90;;;;;;5024094;28;20433;-65
2021/11/03 08:25:11;;;;;;;5.50;3.90;;;5.30;99.90;;;;;;5022239;28;20440;-66
2021/11/03 08:27:38;;;;;;;5.40;4.03;;;5.40;99.90;;;;;;5024302;28;20204;-65
2021/11/03 08:30:06;;;;;;;7.30;3.70;;;5.40;99.90;;;;;;5016896;28;20168;-66
2021/11/03 08:32:41;;;;;;;11.37;4.87;;;5.50;99.90;;;;;;5027090;28;20411;-66
2021/11/03 08:35:10;;;;;;;7.80;4.90;;;5.60;99.90;;;;;;5022563;28;20978;-66
2021/11/03 08:37:38;;;;;;;3.70;3.40;;;5.70;99.90;;;;;;5024662;28;20449;-65
2021/11/03 08:40:06;;;;;;;6.80;4.10;;;5.70;99.90;;;;;;5020506;28;20427;-65
2021/11/03 08:42:32;;;;;;;3.93;3.43;;;5.80;99.90;;;;;;5019876;28;20443;-65
2021/11/03 08:44:58;;;;;;;4.50;3.80;;;5.90;99.90;;;;;;5023923;28;20421;-65
2021/11/03 08:47:24;;;;;;;6.53;4.00;;;5.90;99.90;;;;;;5025463;28;20886;-65
2021/11/03 08:49:51;;;;;;;4.70;3.20;;;6.00;99.90;;;;;;5024890;28;20172;-65
2021/11/03 08:52:18;;;;;;;4.03;2.80;;;6.10;99.90;;;;;;5021437;28;20473;-66
2021/11/03 08:54:45;;;;;;;4.60;3.27;;;6.20;99.90;;;;;;5019790;28;20510;-65
2021/11/03 08:57:13;;;;;;;2.97;2.67;;;6.30;99.90;;;;;;5022010;28;20446;-63
2021/11/03 08:59:38;;;;;;;3.07;2.60;;;6.40;99.90;;;;;;5010777;28;20431;-64
2021/11/03 09:02:04;;;;;;;4.13;2.23;;;6.60;99.90;;;;;;5009552;28;20462;-64
2021/11/03 09:04:34;;;;;;;2.53;2.33;;;6.70;99.90;;;;;;5022403;28;20188;-64
2021/11/03 09:07:00;;;;;;;3.40;2.10;;;6.90;99.90;;;;;;5019665;28;20815;-64
2021/11/03 09:09:26;;;;;;;2.63;2.30;;;7.00;99.90;;;;;;5026719;28;20530;-63
2021/11/03 09:11:52;;;;;;;4.33;2.53;;;7.10;99.90;;;;;;5019695;28;20179;-64
2021/11/03 09:14:20;;;;;;;2.23;1.97;;;7.20;99.90;;;;;;5023933;28;20415;-64
2021/11/03 09:16:48;;;;;;;2.70;2.27;;;7.30;99.90;;;;;;5009029;28;20197;-64
2021/11/03 09:19:14;;;;;;;2.00;1.80;;;7.40;99.90;;;;;;5011830;28;20414;-65
2021/11/03 09:21:40;;;;;;;2.60;1.60;;;7.50;99.90;;;;;;5023454;28;20434;-64
2021/11/03 09:24:05;;;;;;;4.87;1.90;;;7.50;99.90;;;;;;5028022;28;20943;-64
2021/11/03 09:26:31;;;;;;;1.93;1.50;;;7.50;99.90;;;;;;5019344;28;20615;-64
2021/11/03 09:28:59;;;;;;;1.30;1.20;;;7.60;99.90;;;;;;5024537;28;20179;-64
2021/11/03 09:31:25;;;;;;;1.50;1.40;;;7.60;99.90;;;;;;5017633;28;20195;-64
2021/11/03 09:33:51;;;;;;;2.90;1.50;;;7.60;99.90;;;;;;5025317;28;20467;-64
2021/11/03 09:36:20;;;;;;;1.53;1.43;;;7.70;99.90;;;;;;5017493;28;20524;-64
2021/11/03 09:38:47;;;;;;;1.70;1.60;;;7.70;99.90;;;;;;5021136;28;20183;-65
2021/11/03 09:41:21;;;;;;;2.87;2.00;;;7.70;99.90;;;;;;5025608;28;20485;-64
2021/11/03 09:43:55;;;;;;;2.33;2.17;;;7.80;99.90;;;;;;5027372;28;20940;-64
2021/11/03 09:46:23;;;;;;;1.87;1.50;;;7.90;99.90;;;;;;5029003;28;20474;-64
2021/11/03 09:49:16;;;;;;;5.53;1.70;;;7.90;99.90;;;;;;5028252;28;20561;-64
2021/11/03 09:51:46;;;;;;;2.60;1.70;;;8.00;99.90;;;;;;5026350;28;20494;-64
2021/11/03 09:54:19;;;;;;;2.10;1.90;;;8.10;99.90;;;;;;5031678;28;20415;-64
2021/11/03 09:57:09;;;;;;;2.37;2.03;;;8.20;99.90;;;;;;5018616;28;20519;-65
2021/11/03 09:59:41;;;;;;;2.33;2.13;;;8.30;99.90;;;;;;5021695;28;20523;-64
2021/11/03 10:02:20;;;;;;;4.90;3.90;;;8.40;99.90;;;;;;5031116;28;20414;-64
2021/11/03 10:04:51;;;;;;;3.70;2.50;;;8.50;99.90;;;;;;5015068;28;20423;-65
2021/11/03 10:07:26;;;;;;;2.73;2.20;;;8.70;99.10;;;;;;5024790;28;20462;-64
2021/11/03 10:09:52;;;;;;;3.67;2.93;;;8.90;96.70;;;;;;5021575;28;20952;-65
2021/11/03 10:12:19;;;;;;;2.23;2.03;;;8.90;97.80;;;;;;5022503;28;20431;-64
2021/11/03 10:14:46;;;;;;;3.00;2.17;;;9.00;98.10;;;;;;5025738;28;20414;-64
2021/11/03 10:17:16;;;;;;;5.93;2.47;;;9.10;97.80;;;;;;5032209;28;20434;-64
2021/11/03 10:19:42;;;;;;;3.97;2.80;;;9.10;97.50;;;;;;5024098;28;20434;-65
2021/11/03 10:22:35;;;;;;;5.37;3.27;;;9.20;97.50;;;;;;5022057;28;20434;-64
2021/11/03 10:25:24;;;;;;;5.30;2.80;;;9.20;97.60;;;;;;5030524;28;20430;-65
2021/11/03 10:27:59;;;;;;;8.10;2.27;;;9.20;97.40;;;;;;5016488;28;20487;-65
2021/11/03 10:30:48;;;;;;;3.47;2.50;;;9.20;96.90;;;;;;5029836;28;20457;-64
2021/11/03 10:33:37;;;;;;;2.87;2.50;;;9.20;97.30;;;;;;5024835;28;20422;-64
2021/11/03 10:36:16;;;;;;;4.30;2.70;;;9.30;98.00;;;;;;5017592;28;21242;-65
2021/11/03 10:38:57;;;;;;;3.27;2.13;;;9.40;97.30;;;;;;5022742;28;20418;-64
2021/11/03 10:41:29;;;;;;;9.50;2.60;;;9.50;97.50;;;;;;5026474;28;20585;-65
2021/11/03 10:44:03;;;;;;;2.00;1.70;;;9.50;97.70;;;;;;5026736;28;20430;-64
2021/11/03 10:46:32;;;;;;;8.13;2.30;;;9.50;97.30;;;;;;5019089;28;20460;-64
2021/11/03 10:49:18;;;;;;;2.47;2.20;;;9.60;96.60;;;;;;5015632;28;20950;-64
2021/11/03 10:51:45;;;;;;;1.90;1.80;;;9.50;97.10;;;;;;5022781;28;20419;-64
2021/11/03 10:54:18;;;;;;;2.67;1.90;;;9.40;97.60;;;;;;5027714;28;20418;-64
2021/11/03 10:56:54;;;;;;;3.73;2.10;;;9.50;98.10;;;;;;5024690;28;20443;-64
2021/11/03 10:59:20;;;;;;;2.37;1.83;;;9.50;97.80;;;;;;5020117;28;20454;-64
2021/11/03 11:01:47;;;;;;;3.47;2.63;;;9.50;98.20;;;;;;5029407;28;20453;-65
2021/11/03 11:04:32;;;;;;;4.83;2.83;;;9.60;98.10;;;;;;5025951;28;20176;-64
2021/11/03 11:07:29;;;;;;;5.20;2.90;;;9.60;98.50;;;;;;5025905;28;20493;-64
2021/11/03 11:10:25;;;;;;;4.10;2.40;;;9.60;97.90;;;;;;5016104;28;20482;-64
2021/11/03 11:12:52;;;;;;;2.77;2.00;;;9.60;96.00;;;;;;5020355;28;20426;-65
2021/11/03 11:15:45;;;;;;;4.70;2.40;;;9.50;95.00;;;;;;5027765;28;20407;-64
2021/11/03 11:18:30;;;;;;;4.67;2.40;;;9.40;94.50;;;;;;5022603;28;20828;-64
2021/11/03 11:21:01;;;;;;;2.97;1.63;;;9.40;93.50;;;;;;5026036;28;20584;-64
2021/11/03 11:23:37;;;;;;;2.93;2.17;;;9.30;92.70;;;;;;5025272;28;20807;-65
2021/11/03 11:26:28;;;;;;;7.40;2.80;;;9.30;93.30;;;;;;5015736;28;20430;-64
2021/11/03 11:29:21;;;;;;;8.03;3.37;;;9.20;93.00;;;;;;5014727;28;20431;-63
2021/11/03 11:32:03;;;;;;;3.17;2.57;;;9.20;92.30;;;;;;5024708;28;20422;-64
2021/11/03 11:35:00;;;;;;;2.13;1.80;;;9.10;92.90;;;;;;5014157;28;20417;-65
2021/11/03 11:38:04;;;;;;;1.57;1.17;;;9.10;92.00;;;;;;5025015;28;20450;-64
2021/11/03 11:40:54;;;;;;;1.30;1.20;;;9.10;90.70;;;;;;5017931;28;20448;-64
2021/11/03 11:43:24;;;;;;;1.50;1.40;;;9.10;92.30;;;;;;5021500;28;20442;-65
2021/11/03 11:45:50;;;;;;;2.13;1.80;;;9.00;93.10;;;;;;5029919;28;20410;-64
2021/11/03 11:48:31;;;;;;;1.83;1.70;;;9.00;94.80;;;;;;5014059;28;20430;-65
2021/11/03 11:51:02;;;;;;;2.03;1.53;;;9.00;95.60;;;;;;5013790;28;20171;-65
2021/11/03 11:53:28;;;;;;;1.30;1.20;;;9.00;96.30;;;;;;5021517;28;20419;-65
2021/11/03 11:56:07;;;;;;;2.00;1.73;;;8.90;97.40;;;;;;5021025;28;20959;-64
2021/11/03 11:58:34;;;;;;;1.33;1.33;;;8.90;97.90;;;;;;5028706;28;20171;-64
2021/11/03 12:01:17;;;;;;;4.10;1.67;;;8.80;98.50;;;;;;5018378;28;20509;-65
2021/11/03 12:03:58;;;;;;;1.83;1.50;;;8.70;99.40;;;;;;5022313;28;20913;-64
2021/11/03 12:07:00;;;;;;;1.77;1.30;;;8.60;99.90;;;;;;5019314;28;20472;-64
2021/11/03 12:09:29;;;;;;;1.70;1.60;;;8.60;99.90;;;;;;5026147;28;20427;-64
2021/11/03 12:11:55;;;;;;;1.20;1.10;;;8.50;99.90;;;;;;5023615;28;20430;-64
2021/11/03 12:14:34;;;;;;;1.40;1.30;;;8.40;99.90;;;;;;5024576;28;20426;-64
2021/11/03 12:17:06;;;;;;;2.17;1.40;;;8.40;99.90;;;;;;5025009;28;20198;-64
2021/11/03 12:19:41;;;;;;;1.70;1.53;;;8.30;99.90;;;;;;5021847;28;20964;-63
2021/11/03 12:22:28;;;;;;;3.00;1.70;;;8.20;99.90;;;;;;5023948;28;21256;-64
2021/11/03 12:24:56;;;;;;;3.00;1.67;;;8.20;99.90;;;;;;5018771;28;20927;-65
2021/11/03 12:27:24;;;;;;;3.43;1.70;;;8.20;99.90;;;;;;5019933;28;20845;-66
2021/11/03 12:30:08;;;;;;;2.57;1.60;;;8.20;99.90;;;;;;5022839;28;20519;-65
2021/11/03 12:32:59;;;;;;;1.57;1.40;;;8.10;99.90;;;;;;5017380;28;20437;-65
2021/11/03 12:35:25;;;;;;;1.50;1.40;;;8.10;99.90;;;;;;5025847;28;20430;-64
2021/11/03 12:37:55;;;;;;;3.10;1.37;;;8.00;99.90;;;;;;5020502;28;20516;-65
2021/11/03 12:40:26;;;;;;;1.43;1.33;;;7.90;99.90;;;;;;5028648;28;20192;-64
2021/11/03 12:43:17;;;;;;;1.57;1.47;;;7.90;99.90;;;;;;5020149;28;20423;-65
2021/11/03 12:46:06;;;;;;;1.27;1.13;;;7.80;99.90;;;;;;5016236;28;20440;-64
2021/11/03 12:48:35;;;;;;;2.83;1.33;;;7.80;99.90;;;;;;5016658;28;20418;-64
2021/11/03 12:51:01;;;;;;;1.30;1.20;;;7.80;99.90;;;;;;5020306;28;20412;-64
2021/11/03 12:53:32;;;;;;;3.43;1.97;;;7.80;99.90;;;;;;5016113;28;20789;-63
2021/11/03 12:56:10;;;;;;;2.80;2.10;;;7.80;99.90;;;;;;5022307;28;20996;-63
2021/11/03 12:58:52;;;;;;;2.73;2.37;;;7.80;99.90;;;;;;5015484;28;20430;-64
2021/11/03 13:01:25;;;;;;;3.77;2.20;;;7.70;99.90;;;;;;5028345;28;20411;-65
2021/11/03 13:03:56;;;;;;;2.77;1.57;;;7.70;99.90;;;;;;5017169;28;20507;-64
2021/11/03 13:06:45;;;;;;;2.30;1.80;;;7.70;99.90;;;;;;5019897;28;20473;-64
2021/11/03 13:09:25;;;;;;;1.70;1.60;;;7.70;99.90;;;;;;5025640;28;20418;-64